Time;durP1;ratioP1;P1;durP2;ratioP2;P2;SDS_P1;SDS_P2;PMS_P1;PMS_P2;Temp;Humidity;BMP_temperature;BMP_pressure;BME280_temperature;BME280_humidity;BME280_pressure;Samples;Min_cycle;Max_cycle;Signal;HPM_P1;HPM_P2
2021/03/15 00:02:14;;;;;;;13.57;1.33;;;;;;;3.83;54.11;100652.28;5039438;28;20037;-79
2021/03/15 00:04:39;;;;;;;10.40;1.90;;;;;;;4.05;53.20;100660.56;5042842;28;20025;-78
2021/03/15 00:07:05;;;;;;;10.43;1.65;;;;;;;3.93;53.17;100653.84;5057978;28;20051;-79
2021/03/15 00:09:30;;;;;;;13.25;1.10;;;;;;;4.05;53.50;100651.09;5057109;28;20513;-79
2021/03/15 00:11:56;;;;;;;8.88;1.23;;;;;;;4.00;53.55;100647.69;5041856;28;20048;-79
2021/03/15 00:14:22;;;;;;;6.95;0.85;;;;;;;4.13;53.27;100650.94;5071646;28;20033;-80
2021/03/15 00:16:48;;;;;;;10.00;1.35;;;;;;;3.66;54.80;100643.06;5058687;28;20036;-79
2021/03/15 00:19:14;;;;;;;7.68;0.40;;;;;;;3.78;54.50;100644.59;5039851;28;20036;-79
2021/03/15 00:21:40;;;;;;;11.82;1.80;;;;;;;3.82;54.29;100643.69;5071973;28;20371;-73
2021/03/15 00:24:06;;;;;;;13.15;1.98;;;;;;;3.59;55.22;100646.63;5043104;28;20032;-72
2021/03/15 00:26:31;;;;;;;12.57;1.10;;;;;;;3.50;55.09;100645.03;5061520;28;20036;-72
2021/03/15 00:28:57;;;;;;;13.02;1.73;;;;;;;3.54;55.30;100638.94;5062604;28;20039;-73
2021/03/15 00:31:22;;;;;;;8.55;1.50;;;;;;;3.69;54.78;100642.16;5041079;28;20044;-74
2021/03/15 00:33:48;;;;;;;10.73;0.80;;;;;;;3.53;55.23;100644.13;5060320;28;20032;-72
2021/03/15 00:36:13;;;;;;;8.65;1.45;;;;;;;3.65;54.77;100640.50;5058140;28;20035;-73
2021/03/15 00:38:39;;;;;;;12.00;1.48;;;;;;;3.31;55.90;100643.56;5058024;28;20115;-73
2021/03/15 00:41:04;;;;;;;5.20;0.75;;;;;;;3.01;56.42;100640.47;5059101;28;20051;-74
2021/03/15 00:43:29;;;;;;;7.90;0.50;;;;;;;3.08;56.33;100649.00;5023470;28;20044;-72
2021/03/15 00:45:55;;;;;;;6.85;0.75;;;;;;;3.22;56.16;100651.41;5046745;28;20044;-73
2021/03/15 00:48:21;;;;;;;11.68;1.60;;;;;;;3.07;56.36;100652.44;5057449;28;20113;-73
2021/03/15 00:50:47;;;;;;;10.48;1.23;;;;;;;3.57;54.87;100648.38;5026654;28;20178;-73
2021/03/15 00:53:19;;;;;;;6.93;0.93;;;;;;;2.99;55.91;100644.78;5038725;28;20036;-74
2021/03/15 00:55:44;;;;;;;14.75;0.77;;;;;;;3.39;54.99;100649.47;5041152;28;20040;-74
2021/03/15 00:58:10;;;;;;;3.70;0.40;;;;;;;3.15;55.62;100645.47;5028400;28;20050;-72
2021/03/15 01:00:38;;;;;;;7.70;0.93;;;;;;;2.06;58.89;100644.03;5045975;28;20165;-71
2021/03/15 01:03:15;;;;;;;7.32;0.75;;;;;;;2.64;57.05;100640.03;5041657;28;20040;-70
2021/03/15 01:05:48;;;;;;;7.38;1.45;;;;;;;2.42;57.72;100647.13;5050863;23;20749;-69
2021/03/15 01:08:34;;;;;;;3.95;0.30;;;;;;;2.77;56.13;100650.19;5040349;28;20095;-70
2021/03/15 01:11:01;;;;;;;5.75;1.27;;;;;;;3.00;55.04;100653.38;5029025;28;20036;-69
2021/03/15 01:13:28;;;;;;;8.25;0.85;;;;;;;2.11;57.52;100645.72;5044787;28;20036;-69
2021/03/15 01:15:55;;;;;;;11.45;0.95;;;;;;;2.55;56.38;100648.72;5040668;28;20053;-70
2021/03/15 01:18:21;;;;;;;2.20;0.55;;;;;;;2.77;55.39;100645.03;5045432;28;20036;-70
2021/03/15 01:20:46;;;;;;;6.05;0.20;;;;;;;2.63;55.74;100646.94;5025224;28;20025;-70
2021/03/15 01:23:12;;;;;;;5.82;0.65;;;;;;;2.65;55.44;100645.19;5041400;28;20166;-70
2021/03/15 01:25:41;;;;;;;7.28;0.30;;;;;;;2.28;56.64;100645.53;5043443;28;20038;-70
2021/03/15 01:28:09;;;;;;;1.95;0.30;;;;;;;2.21;57.12;100643.88;5033355;28;20044;-70
2021/03/15 01:30:36;;;;;;;7.47;0.30;;;;;;;2.31;56.37;100635.22;5049684;28;20029;-70
2021/03/15 01:33:02;;;;;;;4.20;0.50;;;;;;;2.11;57.24;100642.28;5050995;28;20415;-70
2021/03/15 01:35:28;;;;;;;3.60;0.45;;;;;;;1.86;57.49;100642.47;5047287;28;20037;-69
2021/03/15 01:37:53;;;;;;;5.68;0.25;;;;;;;2.15;56.72;100631.03;5051014;28;20060;-69
2021/03/15 01:40:20;;;;;;;2.25;0.57;;;;;;;2.32;56.19;100626.59;5047982;28;20398;-69
2021/03/15 01:42:46;;;;;;;5.25;0.65;;;;;;;2.04;57.14;100626.00;5043337;28;20033;-70
2021/03/15 01:45:12;;;;;;;4.25;0.22;;;;;;;2.19;56.13;100630.16;5029929;28;20090;-69
2021/03/15 01:47:39;;;;;;;3.45;0.25;;;;;;;2.08;56.59;100626.81;5045303;28;20037;-69
2021/03/15 01:50:06;;;;;;;5.25;0.28;;;;;;;2.34;55.40;100616.28;5044349;28;20034;-70
2021/03/15 01:52:34;;;;;;;2.75;0.20;;;;;;;2.01;56.58;100614.84;5044438;28;20060;-69
2021/03/15 01:55:00;;;;;;;3.70;0.70;;;;;;;2.20;55.96;100615.53;5043068;28;20029;-69
2021/03/15 01:57:25;;;;;;;2.38;0.22;;;;;;;2.06;56.60;100613.09;5024304;28;20738;-69
2021/03/15 01:59:51;;;;;;;2.80;0.40;;;;;;;1.56;58.04;100612.63;5046030;28;20032;-69
2021/03/15 02:02:18;;;;;;;1.10;0.10;;;;;;;2.12;56.15;100613.88;5046612;28;20064;-69
2021/03/15 02:04:44;;;;;;;7.93;0.20;;;;;;;1.94;56.44;100608.91;5046295;28;20020;-69
2021/03/15 02:07:09;;;;;;;1.25;0.47;;;;;;;2.09;55.73;100613.06;5046900;28;20060;-69
2021/03/15 02:09:35;;;;;;;1.00;0.40;;;;;;;1.84;57.13;100617.56;5050018;28;20117;-69
2021/03/15 02:12:34;;;;;;;1.70;0.17;;;;;;;2.01;56.14;100614.84;5052937;28;20048;-70
2021/03/15 02:15:15;;;;;;;0.68;0.20;;;;;;;1.95;56.31;100615.75;5048965;28;20095;-70
2021/03/15 02:18:04;;;;;;;1.27;0.30;;;;;;;1.61;57.70;100610.00;5053578;28;20033;-70
2021/03/15 02:20:35;;;;;;;6.18;0.50;;;;;;;1.90;56.23;100618.38;5049815;28;20140;-69
2021/03/15 02:23:00;;;;;;;3.65;0.20;;;;;;;1.83;56.66;100603.81;5053105;28;20044;-70
2021/03/15 02:26:02;;;;;;;3.65;0.70;;;;;;;1.34;58.02;100606.72;5034501;28;20036;-70
2021/03/15 02:28:40;;;;;;;6.38;0.65;;;;;;;1.39;57.94;100597.22;5050337;28;20503;-70
2021/03/15 02:31:43;;;;;;;5.40;0.40;;;;;;;1.24;57.77;100598.19;5052682;28;20041;-70
2021/03/15 02:34:11;;;;;;;5.70;0.40;;;;;;;1.22;58.50;100591.34;5053231;28;20131;-70
2021/03/15 02:36:40;;;;;;;5.55;0.38;;;;;;;1.48;57.83;100589.50;5052699;28;20044;-70
2021/03/15 02:39:11;;;;;;;4.20;0.20;;;;;;;1.37;58.10;100590.38;5032819;28;20108;-70
2021/03/15 02:41:39;;;;;;;4.68;0.30;;;;;;;1.42;58.08;100584.38;5067916;28;20100;-70
2021/03/15 02:44:08;;;;;;;1.48;0.50;;;;;;;1.53;57.35;100581.75;5050224;28;20036;-70
2021/03/15 02:46:36;;;;;;;9.52;0.35;;;;;;;1.22;58.76;100578.47;5032940;28;20061;-70
2021/03/15 02:49:09;;;;;;;2.92;0.50;;;;;;;1.52;57.13;100580.84;5051177;28;20514;-70
2021/03/15 02:51:37;;;;;;;1.92;0.10;;;;;;;1.36;58.10;100578.38;5051425;28;20093;-70
2021/03/15 02:54:05;;;;;;;3.25;0.35;;;;;;;1.44;57.89;100580.09;5061625;28;20120;-69
2021/03/15 02:56:34;;;;;;;4.32;0.55;;;;;;;1.28;58.34;100587.03;5060530;28;20021;-70
2021/03/15 02:59:05;;;;;;;2.13;0.20;;;;;;;1.57;57.71;100573.09;5053450;28;20049;-70
2021/03/15 03:01:33;;;;;;;3.80;0.40;;;;;;;1.84;56.87;100571.16;5050871;28;20132;-70
2021/03/15 03:03:59;;;;;;;3.47;0.30;;;;;;;1.85;57.00;100572.91;5046779;28;20345;-70
2021/03/15 03:06:28;;;;;;;9.23;0.80;;;;;;;1.58;58.03;100572.25;5048561;28;20439;-70
2021/03/15 03:08:55;;;;;;;4.05;0.32;;;;;;;1.93;57.07;100577.13;5049037;28;20035;-69
2021/03/15 03:11:22;;;;;;;1.80;0.20;;;;;;;2.07;56.93;100583.88;5045229;28;20438;-70
2021/03/15 03:14:35;;;;;;;5.05;0.43;;;;;;;2.04;56.74;100578.72;5043058;28;20055;-70
2021/03/15 03:17:02;;;;;;;4.75;0.30;;;;;;;2.26;56.79;100574.22;5051093;28;20036;-70
2021/03/15 03:19:30;;;;;;;6.72;0.50;;;;;;;1.95;58.03;100579.66;5049583;28;20037;-70
2021/03/15 03:21:57;;;;;;;3.78;0.30;;;;;;;2.38;56.98;100568.06;5028333;28;20033;-70
2021/03/15 03:24:24;;;;;;;7.32;0.68;;;;;;;2.28;57.59;100572.47;5046063;28;20082;-70
2021/03/15 03:26:53;;;;;;;6.43;0.47;;;;;;;2.57;56.98;100569.56;5037126;28;20037;-70
2021/03/15 03:29:19;;;;;;;7.78;0.32;;;;;;;2.34;57.25;100573.28;5045871;28;20108;-71
2021/03/15 03:31:47;;;;;;;4.70;0.20;;;;;;;2.30;57.43;100570.75;5048657;28;20029;-71
2021/03/15 03:34:14;;;;;;;6.82;0.20;;;;;;;2.81;56.37;100577.91;5047221;28;20037;-71
2021/03/15 03:36:41;;;;;;;6.28;0.75;;;;;;;1.68;60.05;100579.03;5049261;28;20033;-71
2021/03/15 03:39:08;;;;;;;2.45;0.47;;;;;;;2.59;57.26;100578.16;5047064;28;20037;-71
2021/03/15 03:41:34;;;;;;;4.55;0.40;;;;;;;2.15;58.36;100582.06;5051123;28;20025;-71
2021/03/15 03:44:01;;;;;;;4.22;0.35;;;;;;;2.24;58.82;100574.25;5050059;28;20471;-71
2021/03/15 03:46:26;;;;;;;8.30;0.40;;;;;;;2.69;57.09;100578.88;5045923;28;20024;-72
2021/03/15 03:48:52;;;;;;;4.95;0.60;;;;;;;2.60;57.50;100582.47;5032085;28;20021;-69
2021/03/15 03:51:20;;;;;;;9.63;0.57;;;;;;;2.35;58.38;100582.72;5045466;28;20419;-70
2021/03/15 03:54:27;;;;;;;7.07;0.80;;;;;;;2.47;57.93;100588.63;5046435;28;20037;-70
2021/03/15 03:57:01;;;;;;;5.38;0.55;;;;;;;2.33;58.58;100581.00;5034275;28;20037;-70
2021/03/15 03:59:31;;;;;;;9.55;1.23;;;;;;;2.51;58.25;100580.84;5046023;28;20041;-70
2021/03/15 04:02:01;;;;;;;5.35;0.57;;;;;;;2.48;58.42;100580.00;5048836;28;20106;-70
2021/03/15 04:04:30;;;;;;;15.35;0.55;;;;;;;2.36;58.68;100581.00;5045395;28;20028;-70
2021/03/15 04:06:56;;;;;;;11.40;0.52;;;;;;;2.47;58.33;100578.31;5051383;28;20049;-70
2021/03/15 04:09:32;;;;;;;6.55;0.43;;;;;;;2.15;58.95;100569.16;5047638;28;20061;-70
2021/03/15 04:12:02;;;;;;;8.13;1.58;;;;;;;2.32;58.71;100577.59;5032262;28;20140;-70
2021/03/15 04:14:36;;;;;;;13.48;0.85;;;;;;;2.68;57.85;100575.47;5060982;28;20058;-70
2021/03/15 04:17:04;;;;;;;7.80;1.20;;;;;;;2.39;58.47;100574.94;5069973;28;20036;-70
2021/03/15 04:19:38;;;;;;;7.68;0.93;;;;;;;2.50;58.29;100579.09;5044895;28;20123;-70
2021/03/15 04:22:08;;;;;;;7.93;0.80;;;;;;;2.26;58.92;100569.06;5050836;28;20059;-71
2021/03/15 04:24:36;;;;;;;9.77;1.02;;;;;;;2.55;58.18;100572.19;5061855;28;20036;-70
2021/03/15 04:27:03;;;;;;;6.93;0.57;;;;;;;2.79;57.68;100582.22;5066428;28;20443;-70
2021/03/15 04:29:29;;;;;;;7.88;0.80;;;;;;;2.61;57.73;100576.41;5065710;28;20037;-70
2021/03/15 04:31:56;;;;;;;5.03;0.73;;;;;;;2.50;58.14;100570.53;5066666;28;20294;-70
2021/03/15 04:34:22;;;;;;;6.65;0.80;;;;;;;2.80;57.63;100571.03;5069641;28;20055;-70
2021/03/15 04:36:49;;;;;;;6.05;0.77;;;;;;;2.33;58.58;100576.72;5067631;28;20037;-71
2021/03/15 04:39:15;;;;;;;11.77;1.25;;;;;;;2.53;58.35;100575.63;5049844;28;20025;-70
2021/03/15 04:41:41;;;;;;;14.68;1.52;;;;;;;2.81;57.66;100568.44;5067636;28;20059;-71
2021/03/15 04:44:09;;;;;;;11.38;1.48;;;;;;;2.73;57.92;100571.13;5064999;28;20074;-70
2021/03/15 04:46:37;;;;;;;3.50;1.08;;;;;;;2.22;58.95;100564.78;5034118;28;20060;-70
2021/03/15 04:49:07;;;;;;;9.32;1.05;;;;;;;2.75;57.96;100571.94;5065040;28;20032;-70
2021/03/15 04:51:34;;;;;;;8.73;1.00;;;;;;;2.82;56.94;100569.28;5049644;28;20471;-70
2021/03/15 04:54:01;;;;;;;4.13;1.00;;;;;;;2.96;57.14;100562.22;5035075;28;20037;-70
2021/03/15 04:56:28;;;;;;;8.85;0.85;;;;;;;3.05;56.63;100569.00;5048652;28;20082;-70
2021/03/15 04:58:57;;;;;;;9.10;0.57;;;;;;;3.06;56.63;100573.28;5067335;28;20036;-70
2021/03/15 05:01:28;;;;;;;11.25;1.92;;;;;;;2.89;57.46;100565.75;5065405;28;20052;-70
2021/03/15 05:03:54;;;;;;;6.90;1.23;;;;;;;3.66;54.99;100570.69;5066252;28;20147;-71
2021/03/15 05:06:20;;;;;;;13.63;2.00;;;;;;;2.94;57.09;100564.81;5063917;28;20021;-70
2021/03/15 05:08:49;;;;;;;10.77;0.75;;;;;;;3.25;56.33;100558.34;5063881;28;20193;-70
2021/03/15 05:11:18;;;;;;;9.13;1.00;;;;;;;2.87;56.90;100559.78;5046798;28;20037;-70
2021/03/15 05:13:44;;;;;;;9.23;0.80;;;;;;;2.87;57.21;100562.34;5052671;28;20025;-70
2021/03/15 05:16:11;;;;;;;11.27;1.00;;;;;;;2.45;58.03;100564.56;5050769;28;20032;-70
2021/03/15 05:18:37;;;;;;;8.63;0.82;;;;;;;2.93;56.92;100567.41;5067874;28;20033;-70
2021/03/15 05:21:03;;;;;;;9.75;1.02;;;;;;;2.65;57.59;100572.94;5051742;28;20040;-70
2021/03/15 05:23:31;;;;;;;8.90;1.48;;;;;;;2.75;57.81;100563.34;5070143;28;20025;-70
2021/03/15 05:25:58;;;;;;;11.63;1.95;;;;;;;2.83;57.47;100555.53;5065824;28;20143;-70
2021/03/15 05:28:24;;;;;;;8.38;1.60;;;;;;;2.47;58.53;100566.25;5033854;28;20217;-70
2021/03/15 05:30:51;;;;;;;8.50;1.02;;;;;;;2.97;57.61;100563.91;5050651;28;20096;-70
2021/03/15 05:33:19;;;;;;;24.65;2.15;;;;;;;3.34;56.32;100569.47;5067517;28;20097;-71
2021/03/15 05:35:47;;;;;;;14.40;1.52;;;;;;;2.87;57.68;100563.19;5047463;28;21460;-70
2021/03/15 05:38:13;;;;;;;6.32;1.90;;;;;;;3.35;56.39;100562.56;5066576;28;20105;-70
2021/03/15 05:40:42;;;;;;;12.82;0.85;;;;;;;3.45;55.52;100558.97;5037334;23;20415;-72
2021/03/15 05:43:14;;;;;;;6.85;1.20;;;;;;;3.35;56.30;100570.31;5060109;28;20036;-71
2021/03/15 05:46:01;;;;;;;14.15;0.77;;;;;;;3.61;55.73;100567.34;5043217;28;20112;-71
2021/03/15 05:48:41;;;;;;;17.92;0.80;;;;;;;3.25;56.51;100563.53;5058402;28;20056;-69
2021/03/15 05:51:23;;;;;;;12.90;1.35;;;;;;;3.17;56.94;100566.22;5046865;28;20028;-70
2021/03/15 05:54:26;;;;;;;10.65;1.50;;;;;;;3.85;54.99;100571.25;5062182;28;20094;-70
2021/03/15 05:57:19;;;;;;;10.25;2.38;;;;;;;4.11;54.17;100568.19;5021990;28;20047;-71
2021/03/15 06:00:06;;;;;;;20.65;1.27;;;;;;;4.09;54.41;100561.34;5044337;28;20094;-71
2021/03/15 06:02:41;;;;;;;11.38;1.33;;;;;;;3.49;55.60;100560.63;5058763;28;20025;-72
2021/03/15 06:05:17;;;;;;;17.60;1.48;;;;;;;4.05;54.31;100557.09;5045039;28;20032;-71
2021/03/15 06:07:51;;;;;;;10.75;1.05;;;;;;;3.72;54.76;100556.81;5064638;28;20091;-72
2021/03/15 06:11:05;;;;;;;10.13;1.35;;;;;;;4.06;53.89;100549.31;5059192;28;20056;-71
2021/03/15 06:13:32;;;;;;;21.17;1.70;;;;;;;3.87;54.62;100556.53;5033358;28;20060;-70
2021/03/15 06:16:00;;;;;;;21.63;1.52;;;;;;;4.07;54.04;100552.75;5065807;28;20032;-75
2021/03/15 06:18:27;;;;;;;8.60;0.70;;;;;;;3.75;54.91;100564.53;5052274;23;20644;-70
2021/03/15 06:20:53;;;;;;;8.10;0.82;;;;;;;4.00;54.47;100560.63;5042179;28;20514;-69
2021/03/15 06:23:19;;;;;;;16.45;1.42;;;;;;;4.28;53.88;100560.13;5037413;28;20044;-69
2021/03/15 06:25:47;;;;;;;16.45;2.72;;;;;;;3.99;54.15;100564.09;5039462;28;20029;-69
2021/03/15 06:28:13;;;;;;;11.95;1.45;;;;;;;3.87;54.50;100568.63;5042184;28;20099;-69
2021/03/15 06:30:41;;;;;;;10.75;1.27;;;;;;;3.76;55.04;100576.56;5055579;28;20403;-69
2021/03/15 06:33:07;;;;;;;13.45;1.27;;;;;;;3.64;55.38;100567.28;5045090;28;20124;-70
2021/03/15 06:36:01;;;;;;;10.63;1.10;;;;;;;3.86;54.71;100567.78;5046638;28;20502;-69
2021/03/15 06:38:28;;;;;;;7.50;1.33;;;;;;;3.50;55.91;100580.41;5036787;28;20036;-69
2021/03/15 06:40:55;;;;;;;14.50;0.98;;;;;;;3.66;55.42;100569.84;5047954;28;20051;-69
2021/03/15 06:43:21;;;;;;;12.05;1.52;;;;;;;4.20;53.98;100573.19;5042796;28;20068;-69
2021/03/15 06:45:54;;;;;;;14.75;2.78;;;;;;;3.72;54.86;100565.44;5040658;28;20057;-69
2021/03/15 06:48:20;;;;;;;15.25;1.83;;;;;;;3.71;55.09;100574.03;5046044;28;20729;-70
2021/03/15 06:50:46;;;;;;;20.63;2.92;;;;;;;3.79;55.31;100571.34;5028980;28;20051;-70
2021/03/15 06:53:12;;;;;;;9.27;1.42;;;;;;;3.64;55.93;100566.44;5046356;28;20036;-71
2021/03/15 06:55:40;;;;;;;14.85;1.48;;;;;;;3.93;55.47;100578.88;5044596;28;20029;-69
2021/03/15 06:58:18;;;;;;;16.42;2.75;;;;;;;2.91;58.54;100579.47;5042741;28;20068;-70
2021/03/15 07:01:11;;;;;;;22.63;2.42;;;;;;;3.41;57.40;100577.13;5040984;28;20030;-69
2021/03/15 07:03:37;;;;;;;19.60;2.25;;;;;;;3.38;57.39;100593.50;5034163;28;20087;-69
2021/03/15 07:06:04;;;;;;;17.70;1.90;;;;;;;3.45;57.30;100596.84;5039698;28;20083;-70
2021/03/15 07:08:30;;;;;;;21.48;1.65;;;;;;;3.50;57.08;100595.06;5045332;28;20041;-70
2021/03/15 07:10:56;;;;;;;22.73;2.00;;;;;;;3.38;57.12;100596.09;5033980;28;20041;-70
2021/03/15 07:13:34;;;;;;;11.65;0.95;;;;;;;4.17;54.98;100604.31;5041945;28;20052;-70
2021/03/15 07:16:00;;;;;;;12.25;1.13;;;;;;;4.19;54.56;100602.56;5040573;28;20032;-69
2021/03/15 07:18:36;;;;;;;10.45;1.45;;;;;;;3.99;55.28;100599.47;5063683;28;20549;-70
2021/03/15 07:21:05;;;;;;;13.73;1.38;;;;;;;4.23;54.63;100600.78;5060966;28;20051;-69
2021/03/15 07:23:38;;;;;;;12.23;1.33;;;;;;;3.72;55.53;100605.94;5050838;28;20525;-69
2021/03/15 07:26:25;;;;;;;15.07;1.35;;;;;;;4.54;53.18;100618.28;5066100;28;20119;-69
2021/03/15 07:28:51;;;;;;;12.68;1.90;;;;;;;4.02;54.61;100618.34;5066254;28;20089;-69
2021/03/15 07:31:21;;;;;;;9.75;0.93;;;;;;;4.09;53.69;100615.66;5029485;28;20583;-69
2021/03/15 07:34:07;;;;;;;15.10;1.30;;;;;;;4.29;53.45;100617.91;5062346;28;20064;-71
2021/03/15 07:36:43;;;;;;;13.50;1.67;;;;;;;3.99;53.56;100618.41;5031858;28;20517;-70
2021/03/15 07:39:09;;;;;;;8.00;1.00;;;;;;;4.60;51.95;100619.03;5043113;28;20382;-70
2021/03/15 07:41:38;;;;;;;16.52;1.30;;;;;;;4.43;52.02;100631.44;5044063;28;20033;-69
2021/03/15 07:44:34;;;;;;;10.73;1.35;;;;;;;4.27;53.08;100630.00;5047801;28;20024;-69
2021/03/15 07:47:02;;;;;;;13.48;1.02;;;;;;;5.89;49.06;100625.78;5040563;28;20056;-69
2021/03/15 07:49:33;;;;;;;21.20;1.55;;;;;;;5.05;50.13;100637.16;5061455;28;20694;-70
2021/03/15 07:52:09;;;;;;;12.38;1.77;;;;;;;5.08;50.45;100620.72;5065955;28;20033;-70
2021/03/15 07:54:37;;;;;;;16.42;1.10;;;;;;;5.23;50.19;100635.94;5047048;28;20028;-70
2021/03/15 07:57:21;;;;;;;12.70;1.27;;;;;;;4.95;51.00;100635.66;5064146;28;20028;-70
2021/03/15 07:59:49;;;;;;;11.32;1.10;;;;;;;4.69;50.90;100638.72;5046763;28;20440;-70
2021/03/15 08:02:31;;;;;;;17.40;1.17;;;;;;;4.96;50.49;100642.53;5060958;28;20040;-70
2021/03/15 08:04:58;;;;;;;12.10;1.65;;;;;;;7.00;45.57;100648.84;5048049;28;20097;-70
2021/03/15 08:07:25;;;;;;;16.27;1.52;;;;;;;7.42;44.49;100651.06;5065819;28;20036;-71
2021/03/15 08:09:54;;;;;;;10.13;1.38;;;;;;;7.04;45.90;100656.53;5048596;28;20037;-70
2021/03/15 08:12:29;;;;;;;16.90;2.28;;;;;;;6.60;46.54;100650.81;5068316;28;20032;-70
2021/03/15 08:15:04;;;;;;;15.15;2.15;;;;;;;6.83;46.76;100660.56;5054120;28;20106;-70
2021/03/15 08:17:32;;;;;;;24.45;2.20;;;;;;;6.56;47.46;100658.75;5043501;28;615574;-71
2021/03/15 08:20:01;;;;;;;18.65;2.30;;;;;;;6.31;48.61;100659.38;5072565;28;20042;-71
2021/03/15 08:22:28;;;;;;;7.55;1.35;;;;;;;7.81;44.62;100658.59;5052079;28;20093;-71
2021/03/15 08:24:58;;;;;;;16.92;1.30;;;;;;;6.87;45.85;100662.19;5034014;28;20196;-69
2021/03/15 08:27:30;;;;;;;12.68;2.20;;;;;;;7.22;45.06;100660.34;5061379;28;20032;-69
2021/03/15 08:30:01;;;;;;;14.30;1.17;;;;;;;6.26;46.26;100676.75;5064921;28;20036;-71
2021/03/15 08:32:31;;;;;;;19.10;1.88;;;;;;;5.47;48.26;100667.38;5063557;28;20449;-70
2021/03/15 08:34:57;;;;;;;12.55;0.70;;;;;;;6.15;47.70;100673.56;5067035;28;20028;-71
2021/03/15 08:38:01;;;;;;;17.10;2.13;;;;;;;6.70;46.75;100672.19;5062672;28;20235;-71
2021/03/15 08:40:45;;;;;;;23.83;1.50;;;;;;;6.14;48.00;100675.31;5064723;28;20415;-70
2021/03/15 08:43:22;;;;;;;14.93;1.30;;;;;;;5.91;48.95;100678.50;5065880;28;20040;-71
2021/03/15 08:46:05;;;;;;;22.30;2.95;;;;;;;5.19;50.07;100680.94;5048891;28;20028;-70
2021/03/15 08:48:33;;;;;;;18.75;2.35;;;;;;;5.73;49.47;100689.28;5064271;28;20028;-70
2021/03/15 08:51:00;;;;;;;25.73;1.95;;;;;;;5.82;48.98;100691.69;5048143;28;20392;-70
2021/03/15 08:53:38;;;;;;;13.50;1.40;;;;;;;5.46;49.71;100689.03;5063795;28;20031;-70
2021/03/15 08:56:04;;;;;;;6.53;2.20;;;;;;;5.02;50.80;100693.38;5064142;28;20115;-70
2021/03/15 08:58:43;;;;;;;10.30;1.42;;;;;;;5.65;49.49;100692.88;5065780;28;20051;-69
2021/03/15 09:01:12;;;;;;;14.75;1.20;;;;;;;5.91;49.13;100690.59;5045606;28;20097;-69
2021/03/15 09:03:46;;;;;;;15.07;1.25;;;;;;;4.90;50.35;100696.19;5049545;28;20021;-71
2021/03/15 09:06:12;;;;;;;6.07;0.88;;;;;;;4.73;51.75;100697.34;5047353;28;20557;-70
2021/03/15 09:09:01;;;;;;;20.27;2.50;;;;;;;5.23;50.20;100697.25;5061940;28;20488;-69
2021/03/15 09:11:40;;;;;;;10.05;1.25;;;;;;;4.65;51.53;100709.56;5045944;28;20033;-69
2021/03/15 09:16:45;;;;;;;22.83;2.85;;;;;;;5.08;51.14;100708.81;5063942;28;20387;-70
2021/03/15 09:19:20;;;;;;;11.15;1.10;;;;;;;4.73;51.85;100720.63;5066484;28;20032;-69
2021/03/15 09:21:52;;;;;;;8.75;1.00;;;;;;;4.76;51.71;100719.72;5065793;28;20082;-70
2021/03/15 09:24:45;;;;;;;18.20;2.63;;;;;;;4.89;51.43;100720.38;5029503;28;20036;-70
2021/03/15 09:27:30;;;;;;;10.48;1.52;;;;;;;4.49;52.22;100713.31;5048467;28;20032;-70
2021/03/15 09:30:03;;;;;;;19.67;1.40;;;;;;;4.57;52.65;100721.78;5067762;28;20056;-70
2021/03/15 09:32:41;;;;;;;17.77;2.03;;;;;;;5.12;51.31;100725.97;5061983;28;20648;-69
2021/03/15 09:35:21;;;;;;;15.77;1.67;;;;;;;4.79;52.42;100730.03;5066659;28;20041;-70
2021/03/15 09:38:04;;;;;;;17.50;2.25;;;;;;;4.52;52.13;100721.00;5064386;28;20055;-69
2021/03/15 09:40:36;;;;;;;20.10;2.42;;;;;;;4.60;52.02;100721.72;5063171;28;20458;-69
2021/03/15 09:43:04;;;;;;;27.42;2.53;;;;;;;5.13;50.88;100719.91;5062623;28;20033;-70
2021/03/15 09:45:54;;;;;;;17.42;1.55;;;;;;;4.84;52.11;100728.22;5062851;28;20031;-69
2021/03/15 09:48:22;;;;;;;16.15;1.60;;;;;;;5.44;50.14;100732.25;5029138;28;20455;-69
2021/03/15 09:50:55;;;;;;;14.98;2.45;;;;;;;5.71;49.15;100738.59;5037153;28;20131;-70
2021/03/15 09:53:28;;;;;;;16.02;1.55;;;;;;;5.36;50.18;100739.34;5036782;28;20047;-69
2021/03/15 09:56:07;;;;;;;11.38;1.45;;;;;;;5.25;50.55;100727.44;5048263;28;20107;-70
2021/03/15 09:58:57;;;;;;;20.92;2.10;;;;;;;5.72;50.26;100732.50;5068777;28;20721;-69
2021/03/15 10:01:23;;;;;;;13.30;2.72;;;;;;;5.74;49.73;100737.66;5048454;28;20086;-69
2021/03/15 10:04:11;;;;;;;16.08;1.48;;;;;;;5.45;50.49;100733.94;5056032;28;20664;-69
2021/03/15 10:06:55;;;;;;;13.70;1.83;;;;;;;5.13;51.40;100738.06;5054899;28;20046;-70
2021/03/15 10:09:44;;;;;;;15.10;1.88;;;;;;;5.09;51.37;100745.91;5065581;28;20650;-69
2021/03/15 10:12:48;;;;;;;21.13;1.63;;;;;;;5.19;50.48;100735.34;5005305;28;20038;-70
2021/03/15 10:15:37;;;;;;;28.42;2.30;;;;;;;4.58;52.57;100759.72;5014857;28;20048;-69
2021/03/15 10:18:19;;;;;;;19.58;2.55;;;;;;;4.81;51.64;100751.56;5051508;28;20081;-69
2021/03/15 10:20:56;;;;;;;13.88;2.13;;;;;;;4.92;51.45;100756.56;5051196;28;20034;-70
2021/03/15 10:23:32;;;;;;;14.13;2.03;;;;;;;5.22;50.53;100753.41;5047186;28;20403;-69
2021/03/15 10:26:03;;;;;;;17.13;2.00;;;;;;;5.89;49.44;100750.28;5049545;28;20060;-69
2021/03/15 10:28:49;;;;;;;11.55;2.03;;;;;;;5.84;49.41;100762.53;5030864;28;20039;-69
2021/03/15 10:31:23;;;;;;;15.25;1.80;;;;;;;5.63;49.63;100769.00;5049284;28;20098;-70
2021/03/15 10:33:51;;;;;;;17.55;2.05;;;;;;;5.23;50.46;100780.19;5049204;28;20043;-70
2021/03/15 10:36:23;;;;;;;16.58;2.15;;;;;;;5.03;51.48;100758.13;5053000;28;20028;-70
2021/03/15 10:39:08;;;;;;;15.00;2.33;;;;;;;5.92;49.35;100765.78;5036872;28;20502;-69
2021/03/15 10:41:39;;;;;;;13.30;1.17;;;;;;;5.53;49.69;100770.09;5044822;28;20025;-70
2021/03/15 10:44:05;;;;;;;21.88;3.40;;;;;;;5.13;51.51;100779.50;5046246;28;20033;-69
2021/03/15 10:46:54;;;;;;;21.33;1.77;;;;;;;4.46;52.77;100772.91;5035587;28;20042;-69
2021/03/15 10:49:25;;;;;;;18.40;2.92;;;;;;;4.70;51.59;100780.25;5044545;28;20048;-69
2021/03/15 10:51:54;;;;;;;10.40;1.63;;;;;;;4.88;51.63;100773.06;5045734;28;20067;-69
2021/03/15 10:54:38;;;;;;;22.10;2.50;;;;;;;5.61;50.45;100792.41;5032951;28;20123;-70
2021/03/15 10:57:08;;;;;;;23.33;2.15;;;;;;;6.07;48.79;100796.56;5031296;28;20028;-69
2021/03/15 10:59:34;;;;;;;14.30;2.42;;;;;;;5.55;50.16;100784.75;5048317;28;20135;-69
2021/03/15 11:02:05;;;;;;;21.10;2.55;;;;;;;6.09;49.29;100789.63;5067556;28;20060;-70
2021/03/15 11:04:43;;;;;;;15.82;2.08;;;;;;;6.35;47.62;100785.63;5031264;28;20090;-69
2021/03/15 11:07:28;;;;;;;25.73;1.98;;;;;;;5.93;48.91;100801.22;5043500;28;20056;-70
2021/03/15 11:10:03;;;;;;;26.05;2.38;;;;;;;5.62;49.78;100803.63;5043303;28;20036;-69
2021/03/15 11:12:44;;;;;;;19.73;2.70;;;;;;;6.17;48.99;100799.84;5032647;28;20059;-69
2021/03/15 11:15:20;;;;;;;21.55;2.58;;;;;;;5.71;49.33;100807.75;5047668;28;20033;-69
2021/03/15 11:18:09;;;;;;;15.68;1.58;;;;;;;6.09;49.14;100807.78;5045291;28;20114;-70
2021/03/15 11:20:39;;;;;;;14.02;1.63;;;;;;;6.28;48.50;100812.56;5047116;28;20125;-70
2021/03/15 11:23:06;;;;;;;20.40;2.20;;;;;;;5.78;49.89;100809.34;5046003;28;20036;-69
2021/03/15 11:25:32;;;;;;;21.65;2.75;;;;;;;6.18;49.11;100813.66;5046546;28;20416;-69
2021/03/15 11:28:14;;;;;;;24.42;2.38;;;;;;;6.85;47.07;100821.63;5046410;28;20093;-69
2021/03/15 11:30:48;;;;;;;24.92;4.28;;;;;;;5.87;49.28;100820.38;5067482;28;20048;-69
2021/03/15 11:33:23;;;;;;;16.73;1.65;;;;;;;4.73;51.99;100813.84;5063159;28;20115;-69
2021/03/15 11:36:14;;;;;;;23.30;3.03;;;;;;;4.87;52.33;100821.38;5044542;28;20116;-69
2021/03/15 11:38:50;;;;;;;31.70;4.40;;;;;;;4.75;52.32;100819.84;5045470;28;20036;-71
2021/03/15 11:41:25;;;;;;;25.98;4.05;;;;;;;4.94;52.15;100835.09;5045115;23;20065;-73
2021/03/15 11:43:52;;;;;;;29.88;3.03;;;;;;;5.19;51.81;100832.94;5018153;28;20029;-73
2021/03/15 11:46:19;;;;;;;22.88;2.70;;;;;;;4.98;52.12;100836.78;5004831;28;20048;-73
2021/03/15 11:48:45;;;;;;;17.05;3.42;;;;;;;5.54;50.71;100837.47;5033023;28;20069;-75
2021/03/15 11:51:25;;;;;;;14.07;1.95;;;;;;;5.17;51.37;100825.22;4989796;28;20404;-73
2021/03/15 11:54:01;;;;;;;24.38;2.72;;;;;;;5.80;50.21;100830.91;4982168;28;20065;-73
2021/03/15 11:56:26;;;;;;;25.63;2.90;;;;;;;5.01;51.55;100835.00;5004705;28;20480;-73